WetterOnline ( https://www.wetteronline.de )

Wetter aktuell Greifswalder Bodden

Aktuelles Wetter: Greifswalder Oie (12m)

6-stündlich | Neueste Meldungen
Ortszeit Temperatur Wetter
Fr, 02.12. 7:00 3.1° C bedeckt
Fr, 02.12. 1:00 2.7° C bedeckt
Do, 01.12. 19:00 2.9° C bedeckt
Do, 01.12. 13:00 2.1° C bedeckt
Do, 01.12. 7:00 1.8° C bedeckt
Do, 01.12. 1:00 2.1° C bedeckt
Mi, 30.11. 19:00 3.9° C bedeckt
Mi, 30.11. 13:00 3.9° C bedeckt
Ortszeit Temperatur Wetter
Fr, 02.12. 10:00 3.4° C bedeckt
Fr, 02.12. 9:50 3.4° C bedeckt
Fr, 02.12. 9:40 3.3° C bedeckt
Fr, 02.12. 9:30 3.2° C bedeckt
Fr, 02.12. 9:20 3.2° C bedeckt
Fr, 02.12. 9:10 3.1° C bedeckt
Fr, 02.12. 9:00 2.9° C bedeckt
Fr, 02.12. 8:30 2.8° C bewölkt
Fr, 02.12. 8:00 2.8° C bedeckt
Fr, 02.12. 7:30 2.9° C bedeckt
Fr, 02.12. 7:00 3.1° C bedeckt
Ortszeit Relative Feuchte Sichtweite
Fr, 02.12. 7:00 76% 35 km
Fr, 02.12. 1:00 75% 23 km
Do, 01.12. 19:00 79% 14 km
Do, 01.12. 13:00 81% 10 km
Do, 01.12. 7:00 88% 7 km
Do, 01.12. 1:00 90% 7 km
Mi, 30.11. 19:00 85% 7 km
Mi, 30.11. 13:00 87% 7 km
Ortszeit Relative Feuchte Sichtweite
Fr, 02.12. 10:00 74% 50 km
Fr, 02.12. 9:50 74% -
Fr, 02.12. 9:40 73% -
Fr, 02.12. 9:30 73% 45 km
Fr, 02.12. 9:20 73% -
Fr, 02.12. 9:10 73% -
Fr, 02.12. 9:00 74% 40 km
Fr, 02.12. 8:30 74% 40 km
Fr, 02.12. 8:00 72% 45 km
Fr, 02.12. 7:30 75% 40 km
Fr, 02.12. 7:00 76% 35 km
Ortszeit Niederschlagsmenge Niederschlagsart
Fr, 02.12. 7:00 0.1 l/m2 in 12 Std. -
Fr, 02.12. 1:00 0.1 l/m2 in 6 Std. Sprühregen
Do, 01.12. 19:00 0.0 l/m2 in 12 Std. -
Do, 01.12. 13:00 0.0 l/m2 in 6 Std. -
Do, 01.12. 7:00 0.1 l/m2 in 12 Std. -
Do, 01.12. 1:00 0.1 l/m2 in 6 Std. Sprühregen
Mi, 30.11. 19:00 0.0 l/m2 in 12 Std. -
Mi, 30.11. 13:00 0.0 l/m2 in 6 Std. -
Ortszeit Niederschlagsmenge Niederschlagsart
Fr, 02.12. 10:00 0.0 l/m2 in 1 Std. -
Fr, 02.12. 9:50 keine Meldung -
Fr, 02.12. 9:40 keine Meldung -
Fr, 02.12. 9:30 0.0 l/m2 in 1 Std. -
Fr, 02.12. 9:20 keine Meldung -
Fr, 02.12. 9:10 keine Meldung -
Fr, 02.12. 9:00 0.0 l/m2 in 1 Std. -
Fr, 02.12. 8:30 0.0 l/m2 in 1 Std. -
Fr, 02.12. 8:00 0.0 l/m2 in 1 Std. -
Fr, 02.12. 7:30 0.0 l/m2 in 1 Std. -
Fr, 02.12. 7:00 0.0 l/m2 in 1 Std. -
Ortszeit Stärke Spitze Richtung
km/h Bft. km/h Grad Sektor
Fr, 02.12. 7:00 17 3 33 110° O
Fr, 02.12. 1:00 19 3 28 110° O
Do, 01.12. 19:00 17 3 26 120° SO
Do, 01.12. 13:00 11 2 25 130° SO
Do, 01.12. 7:00 11 2 25 120° SO
Do, 01.12. 1:00 13 3 24 140° SO
Mi, 30.11. 19:00 13 3 22 130° SO
Mi, 30.11. 13:00 13 3 28 110° O
Ortszeit Stärke Spitze Richtung
km/h Bft. km/h Grad Sektor
Fr, 02.12. 10:00 9 2 19 100° O
Fr, 02.12. 9:50 9 2 - 100° O
Fr, 02.12. 9:40 11 2 - 90° O
Fr, 02.12. 9:30 13 3 19 100° O
Fr, 02.12. 9:20 13 3 - 100° O
Fr, 02.12. 9:10 11 2 - 90° O
Fr, 02.12. 9:00 11 2 22 100° O
Fr, 02.12. 8:30 17 3 22 120° SO
Fr, 02.12. 8:00 19 3 26 130° SO
Fr, 02.12. 7:30 14 3 25 130° SO
Fr, 02.12. 7:00 17 3 26 110° O
Ortszeit Untergrenze Bedeckung Gattung
total tief tief mittel hoch
Fr, 02.12. 7:00 630 m 8/8 8/8 - - -
Fr, 02.12. 1:00 630 m 8/8 8/8 - - -
Do, 01.12. 19:00 510 m 8/8 8/8 - - -
Do, 01.12. 13:00 420 m 8/8 8/8 - - -
Do, 01.12. 7:00 270 m 8/8 8/8 - - -
Do, 01.12. 1:00 240 m 8/8 8/8 - - -
Mi, 30.11. 19:00 390 m 8/8 8/8 - - -
Mi, 30.11. 13:00 270 m 8/8 8/8 - - -
Ortszeit Bedeckungsgrad in Achtel und Wolkenuntergrenze
Fr, 02.12. 10:00 8(1080m)
Fr, 02.12. 9:50 8(1080m)
Fr, 02.12. 9:40 8
Fr, 02.12. 9:30 1(630m) 8(1230m)
Fr, 02.12. 9:20 1(630m) 8(1230m)
Fr, 02.12. 9:10 8
Fr, 02.12. 9:00 8(1260m)
Fr, 02.12. 8:30 1(1020m) 7(1260m)
Fr, 02.12. 8:00 2(990m) 8(2700m) 8(5400m)
Fr, 02.12. 7:30 3(630m) 8(1260m) 8(2700m)
Fr, 02.12. 7:00 5(630m) 8(840m)
Ortszeit Luftdruck NN (hPa) Tendenz (hPa in 3 Std.)
Fr, 02.12. 7:00 1029 - 0,2
Fr, 02.12. 1:00 1030 - 0,5
Do, 01.12. 19:00 1030 - 0,2
Do, 01.12. 13:00 1030 - 0,4
Do, 01.12. 7:00 1030 + 0,3
Do, 01.12. 1:00 1030 0,0
Mi, 30.11. 19:00 1029 + 0,6
Mi, 30.11. 13:00 1027 + 0,1
Ortszeit Luftdruck NN (hPa) Tendenz (hPa in 3 Std.)
Fr, 02.12. 10:00 1029 + 0,4
Fr, 02.12. 9:50 1029 keine Meldung
Fr, 02.12. 9:40 1029 keine Meldung
Fr, 02.12. 9:30 1030 + 0,6
Fr, 02.12. 9:20 1030 keine Meldung
Fr, 02.12. 9:10 1029 keine Meldung
Fr, 02.12. 9:00 1029 + 0,7
Fr, 02.12. 8:30 1030 + 0,7
Fr, 02.12. 8:00 1029 + 0,2
Fr, 02.12. 7:30 1029 - 0,1
Fr, 02.12. 7:00 1029 - 0,2
Ortszeit Schneehöhe (cm)
Fr, 02.12. 7:00 -
Fr, 02.12. 1:00 0
Do, 01.12. 19:00 0
Do, 01.12. 13:00 -
Do, 01.12. 7:00 -
Do, 01.12. 1:00 0
Mi, 30.11. 19:00 0
Mi, 30.11. 13:00 -
Ortszeit Schneehöhe (cm)
Fr, 02.12. 10:00 -
Fr, 02.12. 9:50 -
Fr, 02.12. 9:40 -
Fr, 02.12. 9:30 -
Fr, 02.12. 9:20 -
Fr, 02.12. 9:10 0
Fr, 02.12. 9:00 0
Fr, 02.12. 8:30 0
Fr, 02.12. 8:00 -
Fr, 02.12. 7:30 0
Fr, 02.12. 7:00 0
Link zu dieser Seite / Seite empfehlen

Das Wetter in ...